Terminal Aerodrome Forecast
Issued by NWS

Home | Current Version | Previous Version | Graphics & Text | Print | Product List | Glossary On
Versions: 1 2 3 4 5 6 7 8 9 10 11 12 13 14 15 16 17 18 19 20 21 22
000
FTUS43 KGRB 301700
TAFATW
TAF
KATW 301720Z 3018/3118 29013KT P6SM SKC
     FM302200 24008KT P6SM SCT070 BKN120
     FM310000 18005KT P6SM BKN070
     FM310300 08005KT P6SM OVC050
      TEMPO 3104/3106 5SM -RA BR BKN025
     FM310600 04009KT 6SM -RA SCT007 OVC010
      TEMPO 3106/3110 2SM -SN BKN007
     FM311000 04007KT P6SM SCT010 OVC020
      TEMPO 3110/3112 3SM -SN BKN010
     FM311400 24006KT P6SM BKN030=

USA.gov is the U.S. government's official web portal to all federal, state and local government web resources and services.